createdAt,value
2018-02-21T00:01:07.533Z,31.93
2018-02-21T00:03:36.740Z,34.20
2018-02-21T00:06:06.456Z,35.33
2018-02-21T00:08:35.686Z,33.57
2018-02-21T00:11:05.923Z,36.33
2018-02-21T00:13:37.660Z,32.70
2018-02-21T00:16:06.916Z,33.60
2018-02-21T00:19:38.673Z,35.57
2018-02-21T00:22:08.556Z,33.10
2018-02-21T00:24:37.842Z,33.43
2018-02-21T00:27:07.468Z,32.60
2018-02-21T00:29:37.086Z,34.60
2018-02-21T00:32:06.349Z,33.97
2018-02-21T00:34:35.738Z,33.00
2018-02-21T00:37:05.475Z,33.27
2018-02-21T00:39:34.735Z,33.83
2018-02-21T00:42:06.331Z,33.27
2018-02-21T00:44:36.298Z,33.70
2018-02-21T00:47:05.528Z,33.30
2018-02-21T00:49:35.947Z,30.90
2018-02-21T00:52:06.400Z,32.10
2018-02-21T00:54:35.663Z,32.40
2018-02-21T00:57:06.140Z,32.93
2018-02-21T00:59:36.963Z,31.47
2018-02-21T01:02:06.233Z,33.77
2018-02-21T01:04:35.511Z,32.07
2018-02-21T01:07:06.260Z,31.20
2018-02-21T01:09:35.552Z,34.77
2018-02-21T01:12:05.732Z,33.53
2018-02-21T01:14:36.596Z,33.90
2018-02-21T01:17:06.284Z,34.93
2018-02-21T01:19:35.626Z,37.23
2018-02-21T01:22:06.588Z,37.93
2018-02-21T01:24:35.889Z,36.33
2018-02-21T01:27:05.152Z,36.70
2018-02-21T01:29:35.765Z,37.80
2018-02-21T01:32:05.668Z,39.30
2018-02-21T01:34:35.014Z,38.70
2018-02-21T01:37:05.627Z,36.87
2018-02-21T01:39:49.271Z,38.17
2018-02-21T01:42:18.958Z,36.03
2018-02-21T01:44:48.211Z,38.50
2018-02-21T01:47:17.461Z,37.73
2018-02-21T01:49:47.028Z,36.97
2018-02-21T01:52:16.324Z,37.27
2018-02-21T01:54:45.587Z,37.30
2018-02-21T01:57:15.376Z,37.63
2018-02-21T01:59:44.634Z,35.53
2018-02-21T02:02:14.069Z,37.10
2018-02-21T02:04:43.915Z,39.63
2018-02-21T02:07:13.155Z,38.90
2018-02-21T02:09:42.420Z,39.10
2018-02-21T02:12:12.089Z,40.30
2018-02-21T02:14:41.331Z,39.67
2018-02-21T02:17:10.550Z,40.47
2018-02-21T02:19:40.169Z,40.63
2018-02-21T02:22:09.427Z,40.27
2018-02-21T02:24:38.712Z,40.87
2018-02-21T02:27:08.275Z,43.13
2018-02-21T02:29:37.538Z,40.80
2018-02-21T02:32:06.781Z,43.67
2018-02-21T02:34:36.526Z,44.27
2018-02-21T02:37:05.762Z,44.77
2018-02-21T02:40:03.143Z,47.63
2018-02-21T02:42:32.783Z,46.47
2018-02-21T02:45:02.466Z,46.63
2018-02-21T02:47:32.087Z,44.93
2018-02-21T02:50:01.503Z,47.20
2018-02-21T02:52:30.781Z,45.80
2018-02-21T02:55:00.539Z,47.57
2018-02-21T02:57:29.842Z,44.90
2018-02-21T02:59:59.055Z,48.17
2018-02-21T03:02:28.858Z,46.83
2018-02-21T03:04:58.275Z,46.23
2018-02-21T03:07:27.551Z,47.70
2018-02-21T03:09:57.335Z,50.13
2018-02-21T03:12:26.687Z,49.10
2018-02-21T03:14:55.939Z,48.67
2018-02-21T03:17:25.538Z,46.37
2018-02-21T03:19:54.788Z,49.07
2018-02-21T03:22:24.220Z,50.20
2018-02-21T03:24:53.998Z,50.10
2018-02-21T03:27:24.513Z,48.93
2018-02-21T03:29:53.779Z,48.07
2018-02-21T03:32:23.336Z,47.97
2018-02-21T03:34:52.570Z,50.70
2018-02-21T03:37:21.905Z,49.17
2018-02-21T03:39:51.579Z,47.07
2018-02-21T03:42:21.037Z,50.80
2018-02-21T03:44:50.350Z,47.53
2018-02-21T03:47:20.127Z,47.37
2018-02-21T03:49:49.416Z,47.03
2018-02-21T03:52:18.708Z,48.47
2018-02-21T03:54:48.065Z,48.57
2018-02-21T03:57:17.354Z,47.57
2018-02-21T03:59:49.058Z,48.97
2018-02-21T04:02:18.320Z,48.90
2018-02-21T04:04:47.578Z,48.30
2018-02-21T04:07:17.171Z,49.23
2018-02-21T04:09:46.447Z,52.20
2018-02-21T04:12:15.727Z,49.93
2018-02-21T04:16:14.661Z,48.60
2018-02-21T04:18:43.912Z,49.30
2018-02-21T04:21:13.568Z,50.87
2018-02-21T04:23:42.776Z,50.50
2018-02-21T04:26:12.008Z,47.07
2018-02-21T04:28:41.724Z,51.13
2018-02-21T04:31:10.962Z,49.33
2018-02-21T04:33:40.302Z,48.53
2018-02-21T04:36:09.947Z,48.87
2018-02-21T04:38:39.195Z,49.57
2018-02-21T04:41:08.518Z,49.03
2018-02-21T04:43:39.257Z,48.17
2018-02-21T04:46:08.555Z,50.33
2018-02-21T04:48:37.801Z,50.67
2018-02-21T04:51:07.478Z,50.60
2018-02-21T04:53:36.827Z,50.30
2018-02-21T04:56:07.148Z,47.97
2018-02-21T04:58:38.297Z,51.13
2018-02-21T05:01:07.734Z,53.03
2018-02-21T05:03:37.009Z,51.30
2018-02-21T05:06:07.578Z,52.20
2018-02-21T05:08:36.837Z,53.60
2018-02-21T05:11:06.095Z,56.30
2018-02-21T05:13:39.742Z,52.27
2018-02-21T05:16:09.134Z,51.27
2018-02-21T05:18:38.379Z,51.67
2018-02-21T05:21:09.102Z,49.97
2018-02-21T05:23:38.363Z,52.10
2018-02-21T05:26:07.628Z,50.60
2018-02-21T05:28:37.310Z,52.93
2018-02-21T05:31:06.596Z,51.50
2018-02-21T05:33:35.833Z,53.17
2018-02-21T05:36:06.561Z,53.37
2018-02-21T05:38:35.845Z,53.83
2018-02-21T05:41:05.278Z,54.60
2018-02-21T05:43:34.961Z,52.73
2018-02-21T05:46:05.376Z,56.37
2018-02-21T05:48:34.658Z,56.10
2018-02-21T05:51:04.488Z,54.23
2018-02-21T05:53:34.736Z,57.90
2018-02-21T05:56:04.727Z,57.50
2018-02-21T05:58:34.578Z,59.97
2018-02-21T06:01:04.930Z,54.73
2018-02-21T06:03:34.249Z,56.27
2018-02-21T06:06:04.639Z,55.67
2018-02-21T06:08:33.866Z,54.30
2018-02-21T06:11:03.392Z,53.33
2018-02-21T06:13:33.083Z,58.10
2018-02-21T06:16:03.050Z,55.77
2018-02-21T06:18:32.393Z,57.73
2018-02-21T06:21:02.431Z,56.77
2018-02-21T06:23:31.679Z,54.87
2018-02-21T06:26:00.911Z,55.50
2018-02-21T06:28:30.815Z,58.23
2018-02-21T06:31:00.112Z,60.57
2018-02-21T06:33:29.380Z,57.10
2018-02-21T06:38:27.003Z,57.90
2018-02-21T06:40:56.516Z,58.40
2018-02-21T06:43:26.642Z,61.97
2018-02-21T06:45:55.909Z,64.33
2018-02-21T06:48:25.237Z,60.43
2018-02-21T06:50:54.842Z,61.33
2018-02-21T06:53:24.116Z,63.77
2018-02-21T06:55:53.496Z,60.63
2018-02-21T06:58:23.237Z,59.27
2018-02-21T07:00:52.562Z,62.90
2018-02-21T07:03:21.959Z,62.10
2018-02-21T07:05:52.500Z,60.60
2018-02-21T07:08:22.006Z,63.13
2018-02-21T07:10:51.594Z,58.20
2018-02-21T07:13:21.997Z,58.90
2018-02-21T07:15:50.048Z,58.17
2018-02-21T07:18:19.357Z,62.37
2018-02-21T07:20:49.189Z,62.37
2018-02-21T07:23:18.583Z,62.63
2018-02-21T07:25:49.627Z,60.43
2018-02-21T07:28:19.810Z,58.23
2018-02-21T07:30:49.063Z,59.97
2018-02-21T07:33:18.376Z,59.47
2018-02-21T07:35:48.851Z,57.97
2018-02-21T07:38:18.097Z,62.87
2018-02-21T07:40:47.358Z,59.27
2018-02-21T07:43:17.004Z,60.67
2018-02-21T07:45:46.343Z,59.03
2018-02-21T07:48:15.675Z,61.17
2018-02-21T07:50:45.400Z,64.60
2018-02-21T07:53:23.065Z,58.73
2018-02-21T07:55:58.483Z,58.40
2018-02-21T07:58:30.704Z,57.40
2018-02-21T08:01:00.600Z,60.57
2018-02-21T08:03:29.864Z,56.97
2018-02-21T08:05:59.246Z,62.00
2018-02-21T08:08:28.918Z,59.70
2018-02-21T08:10:58.169Z,56.77
2018-02-21T08:13:27.447Z,60.10
2018-02-21T08:15:57.130Z,62.60
2018-02-21T08:18:26.882Z,63.33
2018-02-21T08:20:56.168Z,63.37
2018-02-21T08:23:25.986Z,61.07
2018-02-21T08:25:55.308Z,59.83
2018-02-21T08:28:24.595Z,61.20
2018-02-21T08:30:54.284Z,63.30
2018-02-21T08:33:23.563Z,60.27
2018-02-21T08:35:52.810Z,62.40
2018-02-21T08:38:22.620Z,61.60
2018-02-21T08:40:52.396Z,62.33
2018-02-21T08:43:22.671Z,61.17
2018-02-21T08:45:52.378Z,61.03
2018-02-21T08:48:21.724Z,63.70
2018-02-21T08:50:51.007Z,61.27
2018-02-21T08:53:20.731Z,60.20
2018-02-21T08:55:50.019Z,61.67
2018-02-21T08:58:19.420Z,62.20
2018-02-21T09:00:49.071Z,61.70
2018-02-21T09:03:18.354Z,60.27
2018-02-21T09:05:47.651Z,58.40
2018-02-21T09:08:17.421Z,62.17
2018-02-21T09:10:46.702Z,59.90
2018-02-21T09:13:16.060Z,59.27
2018-02-21T09:15:45.607Z,59.27
2018-02-21T09:18:14.870Z,60.47
2018-02-21T09:20:44.209Z,57.13
2018-02-21T09:23:13.895Z,56.63
2018-02-21T09:25:44.185Z,59.87
2018-02-21T09:28:13.533Z,55.40
2018-02-21T09:30:43.755Z,56.20
2018-02-21T09:33:13.182Z,78.03
2018-02-21T09:35:43.092Z,57.40
2018-02-21T09:38:12.514Z,56.53
2018-02-21T09:40:41.998Z,54.77
2018-02-21T09:43:11.938Z,51.50
2018-02-21T09:45:41.216Z,53.83
2018-02-21T09:48:10.514Z,54.83
2018-02-21T09:50:40.071Z,52.10
2018-02-21T09:53:09.314Z,52.43
2018-02-21T09:55:38.595Z,52.13
2018-02-21T09:58:08.533Z,50.77
2018-02-21T10:00:38.344Z,49.97
2018-02-21T10:03:08.406Z,51.30
2018-02-21T10:05:37.997Z,48.93
2018-02-21T10:08:07.324Z,48.30
2018-02-21T10:10:42.520Z,48.80
2018-02-21T10:13:18.227Z,49.20
2018-02-21T10:15:48.076Z,45.10
2018-02-21T10:18:17.943Z,46.33
2018-02-21T10:20:47.348Z,49.00
2018-02-21T10:23:16.677Z,46.40
2018-02-21T10:25:46.342Z,47.10
2018-02-21T10:28:15.978Z,44.57
2018-02-21T10:30:45.353Z,47.50
2018-02-21T10:33:16.141Z,45.70
2018-02-21T10:35:47.012Z,41.53
2018-02-21T10:38:16.389Z,41.17
2018-02-21T10:40:46.112Z,38.57
2018-02-21T10:43:15.503Z,39.90
2018-02-21T10:45:44.900Z,39.17
2018-02-21T10:48:14.542Z,42.17
2018-02-21T10:50:43.807Z,40.43
2018-02-21T10:55:42.872Z,39.40
2018-02-21T10:58:13.168Z,39.90
2018-02-21T11:00:47.082Z,42.30
2018-02-21T11:03:17.315Z,39.33
2018-02-21T11:05:47.635Z,44.30
2018-02-21T11:08:17.227Z,41.87
2018-02-21T11:10:48.588Z,40.83
2018-02-21T11:13:18.335Z,40.53
2018-02-21T11:15:47.645Z,39.60
2018-02-21T11:18:17.556Z,41.67
2018-02-21T11:20:47.335Z,40.30
2018-02-21T11:23:16.608Z,39.23
2018-02-21T11:25:45.868Z,41.27
2018-02-21T11:28:16.299Z,40.93
2018-02-21T11:31:17.674Z,42.30
2018-02-21T11:33:48.118Z,41.53
2018-02-21T11:36:17.682Z,41.37
2018-02-21T11:38:47.432Z,39.00
2018-02-21T11:41:17.114Z,38.87
2018-02-21T11:43:46.403Z,39.50
2018-02-21T11:46:15.662Z,39.17
2018-02-21T11:48:45.247Z,38.30
2018-02-21T11:51:14.551Z,38.20
2018-02-21T11:53:43.815Z,38.20
2018-02-21T11:56:13.642Z,37.37
2018-02-21T11:58:42.963Z,36.17
2018-02-21T12:01:12.219Z,37.73
2018-02-21T12:03:41.472Z,34.90
2018-02-21T12:06:10.760Z,37.10
2018-02-21T12:08:40.034Z,36.80
2018-02-21T12:11:10.735Z,35.43
2018-02-21T12:13:40.718Z,39.03
2018-02-21T12:16:09.991Z,39.37
2018-02-21T12:18:39.251Z,37.80
2018-02-21T12:21:08.596Z,34.80
2018-02-21T12:23:38.204Z,36.10
2018-02-21T12:26:07.438Z,36.07
2018-02-21T12:28:36.724Z,35.00
2018-02-21T12:31:06.345Z,35.50
2018-02-21T12:33:35.587Z,36.83
2018-02-21T12:36:06.935Z,37.00
2018-02-21T12:38:37.508Z,37.57
2018-02-21T12:41:11.485Z,40.57
2018-02-21T12:43:40.850Z,35.13
2018-02-21T12:46:10.091Z,36.90
2018-02-21T12:48:39.342Z,33.77
2018-02-21T12:51:08.934Z,36.03
2018-02-21T12:53:38.860Z,36.93
2018-02-21T12:56:08.131Z,38.10
2018-02-21T12:58:37.767Z,36.17
2018-02-21T13:01:07.058Z,36.53
2018-02-21T13:03:36.256Z,36.60
2018-02-21T13:06:06.335Z,36.43
2018-02-21T13:08:36.727Z,35.30
2018-02-21T13:11:06.068Z,36.73
2018-02-21T13:13:36.820Z,36.00
2018-02-21T13:16:06.117Z,35.67
2018-02-21T13:18:35.345Z,35.13
2018-02-21T13:21:05.126Z,34.80
2018-02-21T13:23:34.640Z,34.40
2018-02-21T13:26:06.367Z,33.13
2018-02-21T13:28:35.678Z,32.37
2018-02-21T13:31:05.055Z,36.67
2018-02-21T13:33:34.709Z,32.07
2018-02-21T13:36:04.802Z,34.73
2018-02-21T13:38:34.171Z,33.80
2018-02-21T13:41:04.280Z,33.60
2018-02-21T13:43:34.073Z,33.67
2018-02-21T13:46:04.454Z,35.53
2018-02-21T13:48:33.984Z,33.60
2018-02-21T13:51:04.459Z,34.00
2018-02-21T13:53:33.726Z,33.20
2018-02-21T13:56:04.512Z,34.80
2018-02-21T13:58:33.787Z,31.73
2018-02-21T14:01:03.292Z,33.37
2018-02-21T14:03:32.894Z,29.97
2018-02-21T14:06:02.858Z,32.80
2018-02-21T14:08:34.022Z,32.30
2018-02-21T14:11:03.840Z,31.03
2018-02-21T14:13:33.147Z,30.37
2018-02-21T14:16:03.687Z,62.70
2018-02-21T14:18:32.964Z,32.83
2018-02-21T14:21:02.444Z,31.50
2018-02-21T14:23:33.184Z,31.57
2018-02-21T14:26:04.486Z,32.10
2018-02-21T14:28:33.764Z,29.17
2018-02-21T14:31:03.642Z,30.87
2018-02-21T14:33:32.973Z,28.70
2018-02-21T14:36:04.167Z,27.40
2018-02-21T14:38:33.481Z,29.03
2018-02-21T14:41:03.118Z,27.30
2018-02-21T14:43:33.424Z,28.83
2018-02-21T14:46:03.875Z,28.60
2018-02-21T14:48:34.472Z,28.70
2018-02-21T14:51:04.479Z,30.57
2018-02-21T14:53:33.746Z,27.40
2018-02-21T14:56:03.820Z,27.77
2018-02-21T14:58:33.403Z,26.23
2018-02-21T15:01:02.895Z,27.40
2018-02-21T15:03:32.159Z,26.57
2018-02-21T15:06:03.807Z,26.13
2018-02-21T15:08:33.086Z,25.87
2018-02-21T15:11:02.621Z,26.73
2018-02-21T15:13:33.439Z,25.10
2018-02-21T15:16:03.766Z,26.93
2018-02-21T15:18:33.366Z,24.60
2018-02-21T15:21:03.205Z,25.13
2018-02-21T15:23:32.513Z,28.97
2018-02-21T15:26:04.039Z,24.50
2018-02-21T15:31:33.423Z,25.30
2018-02-21T15:34:03.664Z,24.80
2018-02-21T15:36:32.982Z,24.60
2018-02-21T15:39:02.604Z,25.90
2018-02-21T15:41:31.843Z,25.77
2018-02-21T15:44:01.991Z,23.77
2018-02-21T15:46:32.524Z,26.20
2018-02-21T15:49:02.006Z,27.13
2018-02-21T15:51:32.321Z,24.40
2018-02-21T15:54:03.939Z,25.77
2018-02-21T15:56:34.377Z,26.43
2018-02-21T15:59:04.839Z,25.13
2018-02-21T16:01:34.413Z,24.03
2018-02-21T16:04:04.506Z,24.23
2018-02-21T16:06:33.756Z,25.37
2018-02-21T16:09:03.761Z,24.70
2018-02-21T16:11:33.050Z,24.73
2018-02-21T16:14:04.148Z,27.63
2018-02-21T16:16:35.016Z,24.00
2018-02-21T16:19:04.423Z,26.30
2018-02-21T16:21:34.679Z,25.07
2018-02-21T16:24:05.116Z,24.07
2018-02-21T16:26:34.580Z,27.57
2018-02-21T16:29:03.989Z,25.23
2018-02-21T16:31:33.295Z,27.10
2018-02-21T16:34:03.516Z,26.80
2018-02-21T16:36:33.225Z,26.80
2018-02-21T16:39:02.705Z,23.80
2018-02-21T16:41:32.022Z,26.40
2018-02-21T16:44:03.789Z,26.40
2018-02-21T16:46:33.139Z,26.03
2018-02-21T16:49:02.625Z,24.10
2018-02-21T16:51:33.558Z,24.13
2018-02-21T16:54:07.081Z,26.60
2018-02-21T16:56:36.830Z,22.53
2018-02-21T17:02:09.243Z,24.63
2018-02-21T17:04:39.709Z,25.17
2018-02-21T17:07:09.282Z,24.97
2018-02-21T17:09:38.882Z,23.30
2018-02-21T17:12:09.103Z,23.90
2018-02-21T17:14:38.779Z,25.97
2018-02-21T17:17:08.107Z,27.50
2018-02-21T17:19:37.621Z,25.00
2018-02-21T17:22:07.280Z,24.73
2018-02-21T17:24:36.556Z,25.87
2018-02-21T17:27:05.816Z,33.13
2018-02-21T17:29:35.473Z,24.80
2018-02-21T17:32:05.383Z,25.83
2018-02-21T17:34:34.662Z,24.83
2018-02-21T17:37:04.550Z,24.40
2018-02-21T17:39:33.810Z,25.10
2018-02-21T17:42:05.018Z,25.03
2018-02-21T17:44:34.567Z,26.40
2018-02-21T17:47:04.191Z,24.93
2018-02-21T17:49:33.429Z,27.63
2018-02-21T17:52:05.129Z,25.60
2018-02-21T17:54:34.407Z,24.40
2018-02-21T17:57:04.031Z,25.53
2018-02-21T17:59:33.629Z,24.60
2018-02-21T18:02:06.680Z,28.30
2018-02-21T18:04:36.381Z,25.10
2018-02-21T18:07:06.149Z,24.50
2018-02-21T18:09:35.480Z,25.70
2018-02-21T18:12:05.689Z,24.73
2018-02-21T18:14:38.786Z,25.63
2018-02-21T18:17:08.362Z,24.77
2018-02-21T18:19:37.839Z,24.73
2018-02-21T18:22:07.421Z,25.33
2018-02-21T18:27:18.585Z,24.33
2018-02-21T18:29:48.483Z,23.90
2018-02-21T18:32:19.491Z,22.70
2018-02-21T18:34:49.422Z,26.60
2018-02-21T18:37:18.711Z,24.37
2018-02-21T18:39:48.018Z,26.67
2018-02-21T18:42:17.026Z,24.50
2018-02-21T18:44:46.943Z,26.87
2018-02-21T18:47:16.198Z,24.60
2018-02-21T18:49:45.909Z,24.30
2018-02-21T18:52:16.808Z,24.43
2018-02-21T18:54:46.076Z,68.03
2018-02-21T18:57:15.598Z,27.00
2018-02-21T18:59:44.919Z,25.77
2018-02-21T19:02:14.182Z,25.50
2018-02-21T19:04:44.296Z,25.23
2018-02-21T19:07:13.610Z,29.43
2018-02-21T19:09:42.355Z,30.27
2018-02-21T19:12:11.573Z,28.60
2018-02-21T19:14:41.267Z,28.60
2018-02-21T19:17:10.353Z,31.03
2018-02-21T19:19:40.093Z,28.67
2018-02-21T19:22:09.396Z,31.77
2018-02-21T19:24:38.717Z,30.97
2018-02-21T19:27:08.390Z,30.40
2018-02-21T19:29:37.853Z,29.80
2018-02-21T19:32:07.162Z,30.17
2018-02-21T19:34:37.001Z,30.17
2018-02-21T19:37:06.255Z,29.10
2018-02-21T19:39:35.490Z,27.10
2018-02-21T19:42:05.610Z,28.80
2018-02-21T19:44:34.835Z,28.57
2018-02-21T19:47:04.266Z,28.13
2018-02-21T19:49:33.927Z,29.10
2018-02-21T19:52:06.815Z,27.10
2018-02-21T19:54:36.103Z,28.10
2018-02-21T19:57:05.712Z,29.40
2018-02-21T19:59:34.993Z,30.13
2018-02-21T20:02:05.503Z,28.27
2018-02-21T20:04:35.306Z,32.83
2018-02-21T20:07:04.773Z,27.77
2018-02-21T20:09:34.062Z,26.90
2018-02-21T20:12:04.054Z,30.40
2018-02-21T20:14:33.390Z,29.60
2018-02-21T20:17:05.083Z,30.70
2018-02-21T20:19:34.385Z,29.90
2018-02-21T20:22:04.845Z,31.33
2018-02-21T20:24:34.505Z,31.10
2018-02-21T20:27:03.988Z,30.20
2018-02-21T20:29:33.221Z,30.20
2018-02-21T20:32:04.027Z,30.87
2018-02-21T20:34:33.279Z,30.43
2018-02-21T20:37:03.684Z,28.23
2018-02-21T20:39:33.463Z,31.00
2018-02-21T20:42:03.683Z,29.70
2018-02-21T20:44:32.915Z,31.23
2018-02-21T20:47:02.517Z,32.30
2018-02-21T20:49:31.789Z,32.77
2018-02-21T20:52:01.377Z,30.07
2018-02-21T20:54:30.957Z,32.00
2018-02-21T20:57:00.227Z,35.40
2018-02-21T20:59:59.683Z,34.63
2018-02-21T21:02:29.924Z,31.90
2018-02-21T21:04:59.221Z,34.67
2018-02-21T21:07:28.483Z,32.67
2018-02-21T21:09:58.023Z,35.67
2018-02-21T21:12:27.274Z,33.90
2018-02-21T21:14:56.488Z,31.90
2018-02-21T21:17:26.141Z,33.53
2018-02-21T21:19:55.376Z,33.57
2018-02-21T21:22:24.613Z,34.33
2018-02-21T21:24:53.906Z,33.00
2018-02-21T21:27:23.146Z,33.60
2018-02-21T21:29:52.570Z,32.27
2018-02-21T21:32:22.809Z,34.33
2018-02-21T21:34:52.512Z,32.73
2018-02-21T21:37:22.348Z,34.47
2018-02-21T21:39:52.243Z,31.10
2018-02-21T21:42:21.945Z,31.83
2018-02-21T21:44:52.326Z,32.90
2018-02-21T21:47:22.175Z,32.30
2018-02-21T21:49:51.727Z,33.40
2018-02-21T21:52:21.735Z,33.27
2018-02-21T21:54:52.135Z,31.90
2018-02-21T21:57:22.758Z,30.80
2018-02-21T22:05:07.034Z,33.73
2018-02-21T22:07:37.476Z,31.17
2018-02-21T22:10:07.907Z,33.37
2018-02-21T22:12:38.152Z,30.63
2018-02-21T22:15:08.156Z,31.53
2018-02-21T22:17:38.192Z,32.03
2018-02-21T22:20:07.540Z,31.70
2018-02-21T22:22:37.631Z,30.63
2018-02-21T22:25:07.478Z,30.47
2018-02-21T22:27:37.189Z,30.47
2018-02-21T22:30:06.487Z,30.13
2018-02-21T22:32:36.083Z,32.50
2018-02-21T22:35:05.402Z,32.77
2018-02-21T22:37:34.781Z,30.77
2018-02-21T22:40:04.693Z,32.00
2018-02-21T22:42:34.009Z,32.27
2018-02-21T22:45:03.781Z,32.00
2018-02-21T22:47:33.385Z,30.70
2018-02-21T22:50:03.499Z,32.20
2018-02-21T22:55:15.905Z,30.60
2018-02-21T22:57:45.228Z,31.90
2018-02-21T23:00:15.685Z,30.53
2018-02-21T23:02:45.025Z,29.80
2018-02-21T23:05:14.320Z,29.47
2018-02-21T23:07:44.237Z,30.53
2018-02-21T23:10:13.515Z,30.07
2018-02-21T23:12:42.993Z,29.73
2018-02-21T23:15:12.536Z,30.50
2018-02-21T23:17:42.016Z,31.20
2018-02-21T23:20:11.244Z,28.97
2018-02-21T23:22:40.859Z,29.77
2018-02-21T23:25:10.075Z,29.27
2018-02-21T23:27:39.423Z,29.03
2018-02-21T23:30:09.075Z,29.17
2018-02-21T23:32:38.505Z,30.00
2018-02-21T23:35:08.046Z,29.90
2018-02-21T23:37:38.667Z,28.97
2018-02-21T23:40:08.338Z,29.60
2018-02-21T23:42:37.620Z,30.80
2018-02-21T23:45:07.287Z,29.77
2018-02-21T23:47:37.514Z,31.00
2018-02-21T23:50:07.465Z,30.03
2018-02-21T23:52:37.171Z,28.87
2018-02-21T23:55:06.511Z,29.77
2018-02-21T23:57:35.806Z,30.87
